sensor_id;sensor_type;location;lat;lon;timestamp;P1;durP1;ratioP1;P2;durP2;ratioP2
71360;SDS011;59166;48.908;1.870;2024-01-27T00:03:38;13.27;;;3.23;;
71360;SDS011;59166;48.908;1.870;2024-01-27T00:08:38;11.60;;;2.80;;
71360;SDS011;59166;48.908;1.870;2024-01-27T00:13:39;8.77;;;2.75;;
71360;SDS011;59166;48.908;1.870;2024-01-27T00:18:41;12.77;;;3.20;;
71360;SDS011;59166;48.908;1.870;2024-01-27T00:23:42;10.45;;;3.03;;
71360;SDS011;59166;48.908;1.870;2024-01-27T00:28:43;9.70;;;3.08;;
71360;SDS011;59166;48.908;1.870;2024-01-27T00:33:45;13.40;;;3.10;;
71360;SDS011;59166;48.908;1.870;2024-01-27T00:38:45;14.57;;;2.42;;
71360;SDS011;59166;48.908;1.870;2024-01-27T00:43:46;9.63;;;2.43;;
71360;SDS011;59166;48.908;1.870;2024-01-27T00:48:48;10.87;;;2.40;;
71360;SDS011;59166;48.908;1.870;2024-01-27T00:53:48;11.98;;;3.42;;
71360;SDS011;59166;48.908;1.870;2024-01-27T00:58:49;10.63;;;3.70;;
71360;SDS011;59166;48.908;1.870;2024-01-27T01:03:51;13.27;;;4.17;;
71360;SDS011;59166;48.908;1.870;2024-01-27T01:08:52;13.70;;;5.25;;
71360;SDS011;59166;48.908;1.870;2024-01-27T01:13:52;16.43;;;6.30;;
71360;SDS011;59166;48.908;1.870;2024-01-27T01:18:54;13.77;;;5.10;;
71360;SDS011;59166;48.908;1.870;2024-01-27T01:23:55;14.13;;;4.80;;
71360;SDS011;59166;48.908;1.870;2024-01-27T01:28:55;16.42;;;5.82;;
71360;SDS011;59166;48.908;1.870;2024-01-27T01:33:57;18.03;;;7.00;;
71360;SDS011;59166;48.908;1.870;2024-01-27T01:38:58;15.85;;;6.50;;
71360;SDS011;59166;48.908;1.870;2024-01-27T01:43:59;16.67;;;7.33;;
71360;SDS011;59166;48.908;1.870;2024-01-27T01:49:01;16.83;;;7.47;;
71360;SDS011;59166;48.908;1.870;2024-01-27T01:54:02;20.60;;;8.10;;
71360;SDS011;59166;48.908;1.870;2024-01-27T01:59:03;19.17;;;8.02;;
71360;SDS011;59166;48.908;1.870;2024-01-27T02:04:05;21.27;;;8.20;;
71360;SDS011;59166;48.908;1.870;2024-01-27T02:09:06;18.17;;;7.38;;
71360;SDS011;59166;48.908;1.870;2024-01-27T02:14:07;15.83;;;6.87;;
71360;SDS011;59166;48.908;1.870;2024-01-27T02:19:09;14.83;;;6.50;;
71360;SDS011;59166;48.908;1.870;2024-01-27T02:24:11;16.53;;;6.03;;
71360;SDS011;59166;48.908;1.870;2024-01-27T02:29:11;15.57;;;5.70;;
71360;SDS011;59166;48.908;1.870;2024-01-27T02:34:12;16.80;;;5.67;;
71360;SDS011;59166;48.908;1.870;2024-01-27T02:39:14;14.90;;;5.00;;
71360;SDS011;59166;48.908;1.870;2024-01-27T02:44:15;16.03;;;5.20;;
71360;SDS011;59166;48.908;1.870;2024-01-27T02:49:15;15.65;;;5.25;;
71360;SDS011;59166;48.908;1.870;2024-01-27T02:54:17;12.43;;;4.07;;
71360;SDS011;59166;48.908;1.870;2024-01-27T02:59:18;12.57;;;3.60;;
71360;SDS011;59166;48.908;1.870;2024-01-27T03:04:18;9.60;;;3.00;;
71360;SDS011;59166;48.908;1.870;2024-01-27T03:09:20;10.90;;;2.70;;
71360;SDS011;59166;48.908;1.870;2024-01-27T03:14:21;11.43;;;2.63;;
71360;SDS011;59166;48.908;1.870;2024-01-27T03:19:22;9.23;;;2.67;;
71360;SDS011;59166;48.908;1.870;2024-01-27T03:24:24;11.30;;;2.90;;
71360;SDS011;59166;48.908;1.870;2024-01-27T03:29:24;11.13;;;3.08;;
71360;SDS011;59166;48.908;1.870;2024-01-27T03:34:25;13.40;;;3.23;;
71360;SDS011;59166;48.908;1.870;2024-01-27T03:39:27;12.73;;;3.30;;
71360;SDS011;59166;48.908;1.870;2024-01-27T03:44:27;12.35;;;3.33;;
71360;SDS011;59166;48.908;1.870;2024-01-27T03:49:28;10.43;;;3.13;;
71360;SDS011;59166;48.908;1.870;2024-01-27T03:54:30;11.20;;;3.13;;
71360;SDS011;59166;48.908;1.870;2024-01-27T03:59:30;11.53;;;2.80;;
71360;SDS011;59166;48.908;1.870;2024-01-27T04:04:31;10.97;;;2.90;;
71360;SDS011;59166;48.908;1.870;2024-01-27T04:09:33;11.02;;;2.95;;
71360;SDS011;59166;48.908;1.870;2024-01-27T04:14:34;10.80;;;3.13;;
71360;SDS011;59166;48.908;1.870;2024-01-27T04:19:34;10.77;;;2.83;;
71360;SDS011;59166;48.908;1.870;2024-01-27T04:24:36;11.17;;;2.90;;
71360;SDS011;59166;48.908;1.870;2024-01-27T04:29:37;11.57;;;3.35;;
71360;SDS011;59166;48.908;1.870;2024-01-27T04:34:38;10.13;;;2.97;;
71360;SDS011;59166;48.908;1.870;2024-01-27T04:39:40;11.80;;;3.00;;
71360;SDS011;59166;48.908;1.870;2024-01-27T04:44:40;15.05;;;3.35;;
71360;SDS011;59166;48.908;1.870;2024-01-27T04:49:41;12.90;;;3.33;;
71360;SDS011;59166;48.908;1.870;2024-01-27T04:54:43;10.30;;;3.03;;
71360;SDS011;59166;48.908;1.870;2024-01-27T04:59:43;8.82;;;2.97;;
71360;SDS011;59166;48.908;1.870;2024-01-27T05:04:44;10.73;;;3.13;;
71360;SDS011;59166;48.908;1.870;2024-01-27T05:09:46;10.65;;;2.80;;
71360;SDS011;59166;48.908;1.870;2024-01-27T05:14:46;9.63;;;2.40;;
71360;SDS011;59166;48.908;1.870;2024-01-27T05:19:47;8.70;;;2.00;;
71360;SDS011;59166;48.908;1.870;2024-01-27T05:24:50;8.73;;;2.03;;
71360;SDS011;59166;48.908;1.870;2024-01-27T05:29:51;8.35;;;1.92;;
71360;SDS011;59166;48.908;1.870;2024-01-27T05:34:52;8.73;;;1.87;;
71360;SDS011;59166;48.908;1.870;2024-01-27T05:39:54;11.40;;;2.40;;
71360;SDS011;59166;48.908;1.870;2024-01-27T05:44:54;12.13;;;2.10;;
71360;SDS011;59166;48.908;1.870;2024-01-27T05:49:55;11.17;;;2.07;;
71360;SDS011;59166;48.908;1.870;2024-01-27T05:54:57;8.47;;;2.57;;
71360;SDS011;59166;48.908;1.870;2024-01-27T05:59:57;12.70;;;4.10;;
71360;SDS011;59166;48.908;1.870;2024-01-27T06:04:58;10.90;;;3.50;;
71360;SDS011;59166;48.908;1.870;2024-01-27T06:10:00;10.95;;;2.80;;
71360;SDS011;59166;48.908;1.870;2024-01-27T06:15:01;11.17;;;2.37;;
71360;SDS011;59166;48.908;1.870;2024-01-27T06:20:01;8.35;;;2.22;;
71360;SDS011;59166;48.908;1.870;2024-01-27T06:25:04;9.47;;;2.23;;
71360;SDS011;59166;48.908;1.870;2024-01-27T06:30:06;9.00;;;1.95;;
71360;SDS011;59166;48.908;1.870;2024-01-27T06:35:07;13.57;;;3.67;;
71360;SDS011;59166;48.908;1.870;2024-01-27T06:40:10;13.73;;;3.23;;
71360;SDS011;59166;48.908;1.870;2024-01-27T06:45:11;12.85;;;2.90;;
71360;SDS011;59166;48.908;1.870;2024-01-27T06:50:12;13.37;;;3.20;;
71360;SDS011;59166;48.908;1.870;2024-01-27T06:55:14;9.48;;;2.60;;
71360;SDS011;59166;48.908;1.870;2024-01-27T07:00:15;11.57;;;2.80;;
71360;SDS011;59166;48.908;1.870;2024-01-27T07:05:16;9.80;;;2.53;;
71360;SDS011;59166;48.908;1.870;2024-01-27T07:10:18;11.30;;;2.60;;
71360;SDS011;59166;48.908;1.870;2024-01-27T07:15:19;11.30;;;2.40;;
71360;SDS011;59166;48.908;1.870;2024-01-27T07:20:19;8.93;;;3.00;;
71360;SDS011;59166;48.908;1.870;2024-01-27T07:25:21;11.93;;;4.40;;
71360;SDS011;59166;48.908;1.870;2024-01-27T07:30:22;8.63;;;3.77;;
71360;SDS011;59166;48.908;1.870;2024-01-27T07:35:23;15.73;;;5.35;;
71360;SDS011;59166;48.908;1.870;2024-01-27T07:40:25;16.20;;;5.07;;
71360;SDS011;59166;48.908;1.870;2024-01-27T07:45:25;15.18;;;5.38;;
71360;SDS011;59166;48.908;1.870;2024-01-27T07:50:26;16.33;;;5.40;;
71360;SDS011;59166;48.908;1.870;2024-01-27T07:55:28;14.43;;;5.33;;
71360;SDS011;59166;48.908;1.870;2024-01-27T08:00:28;15.38;;;5.72;;
71360;SDS011;59166;48.908;1.870;2024-01-27T08:05:29;16.07;;;5.53;;
71360;SDS011;59166;48.908;1.870;2024-01-27T08:10:31;13.27;;;5.30;;
71360;SDS011;59166;48.908;1.870;2024-01-27T08:15:31;15.57;;;5.70;;
71360;SDS011;59166;48.908;1.870;2024-01-27T08:20:32;15.40;;;5.23;;
71360;SDS011;59166;48.908;1.870;2024-01-27T08:25:34;16.37;;;5.73;;
71360;SDS011;59166;48.908;1.870;2024-01-27T08:30:34;15.52;;;5.63;;
71360;SDS011;59166;48.908;1.870;2024-01-27T08:35:35;16.27;;;5.63;;
71360;SDS011;59166;48.908;1.870;2024-01-27T08:40:37;17.67;;;6.27;;
71360;SDS011;59166;48.908;1.870;2024-01-27T08:45:38;16.17;;;5.60;;
71360;SDS011;59166;48.908;1.870;2024-01-27T08:50:39;14.35;;;5.43;;
71360;SDS011;59166;48.908;1.870;2024-01-27T08:55:42;14.70;;;5.50;;
71360;SDS011;59166;48.908;1.870;2024-01-27T09:00:59;16.27;;;6.03;;
71360;SDS011;59166;48.908;1.870;2024-01-27T09:06:06;13.30;;;5.13;;
71360;SDS011;59166;48.908;1.870;2024-01-27T09:11:36;16.63;;;6.03;;
71360;SDS011;59166;48.908;1.870;2024-01-27T09:16:58;20.55;;;5.47;;
71360;SDS011;59166;48.908;1.870;2024-01-27T09:22:04;17.50;;;6.45;;
71360;SDS011;59166;48.908;1.870;2024-01-27T09:32:42;14.73;;;4.23;;
71360;SDS011;59166;48.908;1.870;2024-01-27T09:37:52;17.67;;;5.85;;
71360;SDS011;59166;48.908;1.870;2024-01-27T09:43:23;15.25;;;4.95;;
71360;SDS011;59166;48.908;1.870;2024-01-27T09:48:31;14.60;;;4.50;;
71360;SDS011;59166;48.908;1.870;2024-01-27T09:53:38;14.23;;;4.30;;
71360;SDS011;59166;48.908;1.870;2024-01-27T09:58:41;14.38;;;4.57;;
71360;SDS011;59166;48.908;1.870;2024-01-27T10:03:42;15.37;;;4.50;;
71360;SDS011;59166;48.908;1.870;2024-01-27T10:08:43;16.08;;;4.55;;
71360;SDS011;59166;48.908;1.870;2024-01-27T10:13:57;14.60;;;4.70;;
71360;SDS011;59166;48.908;1.870;2024-01-27T10:19:01;13.88;;;4.30;;
71360;SDS011;59166;48.908;1.870;2024-01-27T10:24:03;12.98;;;4.38;;
71360;SDS011;59166;48.908;1.870;2024-01-27T10:29:05;16.53;;;4.47;;
71360;SDS011;59166;48.908;1.870;2024-01-27T10:34:05;14.10;;;4.35;;
71360;SDS011;59166;48.908;1.870;2024-01-27T10:39:13;11.47;;;4.10;;
71360;SDS011;59166;48.908;1.870;2024-01-27T10:44:17;13.75;;;4.38;;
71360;SDS011;59166;48.908;1.870;2024-01-27T10:49:19;12.32;;;3.83;;
71360;SDS011;59166;48.908;1.870;2024-01-27T10:54:23;12.97;;;4.20;;
71360;SDS011;59166;48.908;1.870;2024-01-27T10:59:27;11.43;;;3.92;;
71360;SDS011;59166;48.908;1.870;2024-01-27T11:04:28;13.07;;;4.82;;
71360;SDS011;59166;48.908;1.870;2024-01-27T11:09:29;14.17;;;4.20;;
71360;SDS011;59166;48.908;1.870;2024-01-27T11:14:31;12.55;;;4.20;;
71360;SDS011;59166;48.908;1.870;2024-01-27T11:19:32;12.57;;;4.00;;
71360;SDS011;59166;48.908;1.870;2024-01-27T11:24:33;13.80;;;4.13;;
71360;SDS011;59166;48.908;1.870;2024-01-27T11:29:35;15.10;;;4.40;;
71360;SDS011;59166;48.908;1.870;2024-01-27T11:34:46;11.80;;;3.93;;
71360;SDS011;59166;48.908;1.870;2024-01-27T11:39:47;13.88;;;4.30;;
71360;SDS011;59166;48.908;1.870;2024-01-27T11:44:49;11.47;;;3.87;;
71360;SDS011;59166;48.908;1.870;2024-01-27T11:49:50;14.18;;;3.60;;
71360;SDS011;59166;48.908;1.870;2024-01-27T11:54:55;12.20;;;3.33;;
71360;SDS011;59166;48.908;1.870;2024-01-27T11:59:57;9.50;;;3.07;;
71360;SDS011;59166;48.908;1.870;2024-01-27T12:04:58;10.88;;;3.25;;
71360;SDS011;59166;48.908;1.870;2024-01-27T12:09:59;10.90;;;3.50;;
71360;SDS011;59166;48.908;1.870;2024-01-27T12:15:01;11.15;;;3.30;;
71360;SDS011;59166;48.908;1.870;2024-01-27T12:20:01;10.60;;;3.40;;
71360;SDS011;59166;48.908;1.870;2024-01-27T12:25:15;13.40;;;3.10;;
71360;SDS011;59166;48.908;1.870;2024-01-27T12:30:17;8.57;;;2.75;;
71360;SDS011;59166;48.908;1.870;2024-01-27T12:35:17;10.20;;;3.00;;
71360;SDS011;59166;48.908;1.870;2024-01-27T12:40:18;10.90;;;2.90;;
71360;SDS011;59166;48.908;1.870;2024-01-27T12:45:21;8.10;;;2.00;;
71360;SDS011;59166;48.908;1.870;2024-01-27T12:50:21;6.75;;;2.00;;
71360;SDS011;59166;48.908;1.870;2024-01-27T12:55:22;8.00;;;2.37;;
71360;SDS011;59166;48.908;1.870;2024-01-27T13:00:24;6.88;;;2.30;;
71360;SDS011;59166;48.908;1.870;2024-01-27T13:05:25;8.23;;;2.40;;
71360;SDS011;59166;48.908;1.870;2024-01-27T13:10:25;8.18;;;2.45;;
71360;SDS011;59166;48.908;1.870;2024-01-27T13:15:27;10.20;;;2.43;;
71360;SDS011;59166;48.908;1.870;2024-01-27T13:20:28;9.30;;;2.60;;
71360;SDS011;59166;48.908;1.870;2024-01-27T13:25:28;8.63;;;2.50;;
71360;SDS011;59166;48.908;1.870;2024-01-27T13:30:31;9.27;;;2.60;;
71360;SDS011;59166;48.908;1.870;2024-01-27T13:35:31;8.68;;;2.40;;
71360;SDS011;59166;48.908;1.870;2024-01-27T13:40:32;9.60;;;2.40;;
71360;SDS011;59166;48.908;1.870;2024-01-27T13:45:34;9.73;;;2.33;;
71360;SDS011;59166;48.908;1.870;2024-01-27T13:50:34;10.30;;;2.43;;
71360;SDS011;59166;48.908;1.870;2024-01-27T13:55:35;7.97;;;2.40;;
71360;SDS011;59166;48.908;1.870;2024-01-27T14:00:37;8.00;;;2.53;;
71360;SDS011;59166;48.908;1.870;2024-01-27T14:05:37;7.47;;;2.30;;
71360;SDS011;59166;48.908;1.870;2024-01-27T14:10:38;11.15;;;2.45;;
71360;SDS011;59166;48.908;1.870;2024-01-27T14:15:40;7.17;;;2.37;;
71360;SDS011;59166;48.908;1.870;2024-01-27T14:20:41;9.00;;;2.20;;
71360;SDS011;59166;48.908;1.870;2024-01-27T14:25:41;9.67;;;2.23;;
71360;SDS011;59166;48.908;1.870;2024-01-27T14:30:44;7.57;;;2.03;;
71360;SDS011;59166;48.908;1.870;2024-01-27T14:35:44;9.93;;;2.30;;
71360;SDS011;59166;48.908;1.870;2024-01-27T14:40:45;8.57;;;2.40;;
71360;SDS011;59166;48.908;1.870;2024-01-27T14:45:47;7.77;;;2.33;;
71360;SDS011;59166;48.908;1.870;2024-01-27T14:50:48;8.70;;;2.88;;
71360;SDS011;59166;48.908;1.870;2024-01-27T14:55:49;11.77;;;2.77;;
71360;SDS011;59166;48.908;1.870;2024-01-27T15:01:00;8.55;;;3.00;;
71360;SDS011;59166;48.908;1.870;2024-01-27T15:06:03;10.50;;;3.07;;
71360;SDS011;59166;48.908;1.870;2024-01-27T15:11:04;9.15;;;2.90;;
71360;SDS011;59166;48.908;1.870;2024-01-27T15:16:07;10.70;;;3.00;;
71360;SDS011;59166;48.908;1.870;2024-01-27T15:21:08;11.25;;;3.15;;
71360;SDS011;59166;48.908;1.870;2024-01-27T15:26:13;10.75;;;3.42;;
71360;SDS011;59166;48.908;1.870;2024-01-27T15:31:17;9.60;;;3.40;;
71360;SDS011;59166;48.908;1.870;2024-01-27T15:36:24;8.88;;;3.30;;
71360;SDS011;59166;48.908;1.870;2024-01-27T15:41:25;11.00;;;3.50;;
71360;SDS011;59166;48.908;1.870;2024-01-27T15:46:27;12.50;;;3.25;;
71360;SDS011;59166;48.908;1.870;2024-01-27T15:51:32;11.27;;;3.37;;
71360;SDS011;59166;48.908;1.870;2024-01-27T15:56:36;10.45;;;3.58;;
71360;SDS011;59166;48.908;1.870;2024-01-27T16:01:41;12.50;;;3.85;;
71360;SDS011;59166;48.908;1.870;2024-01-27T16:06:42;11.10;;;5.23;;
71360;SDS011;59166;48.908;1.870;2024-01-27T16:11:42;14.23;;;6.13;;
71360;SDS011;59166;48.908;1.870;2024-01-27T16:16:45;15.77;;;5.87;;
71360;SDS011;59166;48.908;1.870;2024-01-27T16:21:45;13.18;;;4.90;;
71360;SDS011;59166;48.908;1.870;2024-01-27T16:26:46;13.33;;;4.50;;
71360;SDS011;59166;48.908;1.870;2024-01-27T16:31:48;11.47;;;3.80;;
71360;SDS011;59166;48.908;1.870;2024-01-27T16:36:48;11.50;;;3.58;;
71360;SDS011;59166;48.908;1.870;2024-01-27T16:41:49;10.80;;;3.53;;
71360;SDS011;59166;48.908;1.870;2024-01-27T16:46:51;10.73;;;3.38;;
71360;SDS011;59166;48.908;1.870;2024-01-27T16:51:52;7.63;;;2.33;;
71360;SDS011;59166;48.908;1.870;2024-01-27T16:56:53;8.38;;;2.78;;
71360;SDS011;59166;48.908;1.870;2024-01-27T17:01:55;5.93;;;1.87;;
71360;SDS011;59166;48.908;1.870;2024-01-27T17:06:56;6.60;;;1.90;;
71360;SDS011;59166;48.908;1.870;2024-01-27T17:11:57;9.55;;;2.67;;
71360;SDS011;59166;48.908;1.870;2024-01-27T17:16:59;11.77;;;3.23;;
71360;SDS011;59166;48.908;1.870;2024-01-27T17:21:59;8.75;;;2.70;;
71360;SDS011;59166;48.908;1.870;2024-01-27T17:27:00;15.27;;;3.37;;
71360;SDS011;59166;48.908;1.870;2024-01-27T17:32:02;9.03;;;2.60;;
71360;SDS011;59166;48.908;1.870;2024-01-27T17:37:03;8.68;;;2.60;;
71360;SDS011;59166;48.908;1.870;2024-01-27T17:42:04;7.43;;;2.40;;
71360;SDS011;59166;48.908;1.870;2024-01-27T17:47:06;8.30;;;2.17;;
71360;SDS011;59166;48.908;1.870;2024-01-27T17:52:07;10.77;;;3.40;;
71360;SDS011;59166;48.908;1.870;2024-01-27T17:57:07;9.87;;;3.30;;
71360;SDS011;59166;48.908;1.870;2024-01-27T18:02:09;8.60;;;2.93;;
71360;SDS011;59166;48.908;1.870;2024-01-27T18:07:10;11.77;;;3.17;;
71360;SDS011;59166;48.908;1.870;2024-01-27T18:12:10;10.05;;;2.80;;
71360;SDS011;59166;48.908;1.870;2024-01-27T18:17:12;10.27;;;2.87;;
71360;SDS011;59166;48.908;1.870;2024-01-27T18:22:13;9.48;;;3.00;;
71360;SDS011;59166;48.908;1.870;2024-01-27T18:27:14;9.17;;;2.80;;
71360;SDS011;59166;48.908;1.870;2024-01-27T18:32:16;7.93;;;2.70;;
71360;SDS011;59166;48.908;1.870;2024-01-27T18:37:16;8.90;;;2.65;;
71360;SDS011;59166;48.908;1.870;2024-01-27T18:42:17;9.20;;;2.53;;
71360;SDS011;59166;48.908;1.870;2024-01-27T18:47:19;10.13;;;2.90;;
71360;SDS011;59166;48.908;1.870;2024-01-27T18:52:19;13.70;;;4.30;;
71360;SDS011;59166;48.908;1.870;2024-01-27T18:57:20;11.87;;;3.70;;
71360;SDS011;59166;48.908;1.870;2024-01-27T19:02:22;12.33;;;3.60;;
71360;SDS011;59166;48.908;1.870;2024-01-27T19:07:23;14.17;;;4.70;;
71360;SDS011;59166;48.908;1.870;2024-01-27T19:12:23;14.25;;;5.15;;
71360;SDS011;59166;48.908;1.870;2024-01-27T19:17:25;14.17;;;5.20;;
71360;SDS011;59166;48.908;1.870;2024-01-27T19:22:26;12.48;;;4.40;;
71360;SDS011;59166;48.908;1.870;2024-01-27T19:27:26;14.50;;;4.73;;
71360;SDS011;59166;48.908;1.870;2024-01-27T19:32:28;16.93;;;5.37;;
71360;SDS011;59166;48.908;1.870;2024-01-27T19:37:29;12.25;;;4.50;;
71360;SDS011;59166;48.908;1.870;2024-01-27T19:42:29;11.43;;;4.00;;
71360;SDS011;59166;48.908;1.870;2024-01-27T19:47:31;12.63;;;4.30;;
71360;SDS011;59166;48.908;1.870;2024-01-27T19:52:32;13.18;;;4.30;;
71360;SDS011;59166;48.908;1.870;2024-01-27T19:57:33;12.30;;;4.07;;
71360;SDS011;59166;48.908;1.870;2024-01-27T20:02:35;11.77;;;4.30;;
71360;SDS011;59166;48.908;1.870;2024-01-27T20:07:35;12.87;;;4.37;;
71360;SDS011;59166;48.908;1.870;2024-01-27T20:12:36;12.60;;;4.78;;
71360;SDS011;59166;48.908;1.870;2024-01-27T20:17:39;11.73;;;4.87;;
71360;SDS011;59166;48.908;1.870;2024-01-27T20:22:39;14.18;;;5.07;;
71360;SDS011;59166;48.908;1.870;2024-01-27T20:27:40;12.23;;;4.73;;
71360;SDS011;59166;48.908;1.870;2024-01-27T20:32:42;16.05;;;5.32;;
71360;SDS011;59166;48.908;1.870;2024-01-27T20:37:42;12.53;;;5.00;;
71360;SDS011;59166;48.908;1.870;2024-01-27T20:42:43;14.43;;;4.73;;
71360;SDS011;59166;48.908;1.870;2024-01-27T20:47:47;11.90;;;4.63;;
71360;SDS011;59166;48.908;1.870;2024-01-27T20:52:48;19.60;;;8.43;;
71360;SDS011;59166;48.908;1.870;2024-01-27T20:57:48;24.98;;;10.63;;
71360;SDS011;59166;48.908;1.870;2024-01-27T21:02:50;21.40;;;10.10;;
71360;SDS011;59166;48.908;1.870;2024-01-27T21:07:51;16.50;;;7.00;;
71360;SDS011;59166;48.908;1.870;2024-01-27T21:12:52;13.70;;;6.40;;
71360;SDS011;59166;48.908;1.870;2024-01-27T21:17:54;14.27;;;5.47;;
71360;SDS011;59166;48.908;1.870;2024-01-27T21:22:55;13.90;;;5.87;;
71360;SDS011;59166;48.908;1.870;2024-01-27T21:27:56;12.93;;;5.20;;
71360;SDS011;59166;48.908;1.870;2024-01-27T21:32:58;14.97;;;6.60;;
71360;SDS011;59166;48.908;1.870;2024-01-27T21:37:58;14.27;;;5.85;;
71360;SDS011;59166;48.908;1.870;2024-01-27T21:42:59;16.37;;;6.07;;
71360;SDS011;59166;48.908;1.870;2024-01-27T21:48:01;17.43;;;6.07;;
71360;SDS011;59166;48.908;1.870;2024-01-27T21:53:02;16.45;;;6.65;;
71360;SDS011;59166;48.908;1.870;2024-01-27T21:58:04;18.90;;;7.03;;
71360;SDS011;59166;48.908;1.870;2024-01-27T22:03:06;14.90;;;5.87;;
71360;SDS011;59166;48.908;1.870;2024-01-27T22:08:06;16.50;;;6.50;;
71360;SDS011;59166;48.908;1.870;2024-01-27T22:13:07;16.23;;;6.70;;
71360;SDS011;59166;48.908;1.870;2024-01-27T22:18:09;16.47;;;6.20;;
71360;SDS011;59166;48.908;1.870;2024-01-27T22:23:10;19.40;;;7.00;;
71360;SDS011;59166;48.908;1.870;2024-01-27T22:28:10;17.80;;;7.40;;
71360;SDS011;59166;48.908;1.870;2024-01-27T22:33:12;20.47;;;9.17;;
71360;SDS011;59166;48.908;1.870;2024-01-27T22:38:13;17.60;;;7.37;;
71360;SDS011;59166;48.908;1.870;2024-01-27T22:43:14;17.03;;;6.90;;
71360;SDS011;59166;48.908;1.870;2024-01-27T22:48:16;17.95;;;6.18;;
71360;SDS011;59166;48.908;1.870;2024-01-27T22:53:16;17.50;;;6.60;;
71360;SDS011;59166;48.908;1.870;2024-01-27T22:58:17;15.82;;;6.45;;
71360;SDS011;59166;48.908;1.870;2024-01-27T23:03:19;17.93;;;7.57;;
71360;SDS011;59166;48.908;1.870;2024-01-27T23:08:19;13.83;;;5.47;;
71360;SDS011;59166;48.908;1.870;2024-01-27T23:13:20;13.07;;;5.40;;
71360;SDS011;59166;48.908;1.870;2024-01-27T23:18:22;15.40;;;5.33;;
71360;SDS011;59166;48.908;1.870;2024-01-27T23:23:23;15.07;;;5.68;;
71360;SDS011;59166;48.908;1.870;2024-01-27T23:28:23;15.80;;;6.43;;
71360;SDS011;59166;48.908;1.870;2024-01-27T23:33:25;16.70;;;6.47;;
71360;SDS011;59166;48.908;1.870;2024-01-27T23:38:26;14.43;;;6.55;;
71360;SDS011;59166;48.908;1.870;2024-01-27T23:43:26;14.70;;;6.63;;
71360;SDS011;59166;48.908;1.870;2024-01-27T23:48:28;14.00;;;6.10;;
71360;SDS011;59166;48.908;1.870;2024-01-27T23:53:29;14.85;;;5.82;;
71360;SDS011;59166;48.908;1.870;2024-01-27T23:58:29;15.30;;;5.80;;
